Airport Weather Around the Area


KLVN - Mpls/Airlake, Lakeville, MN, USA
Distance from station: S 5mi, 8km
Updated: Sat, 25-Mar-2017 2:12pm CDT
Overcast
Overcast
 Wind from ENE
Wind: ENE 14 mph , 22 km/h, Gust: 17 mph , 28 km/h
Temperature: 39°F , 4°C
Wind Chill: 31°F , -1°C
Dew Point: 34°F , 1°C
Humidity: 81%
Barometer: 30.10 inHg , 1019.3 hPa
Clouds: Overcast
Visibility: 10 miles , 16 km
Cloud details: Overcast 1600 ft
2017/03/25 19:12 KLVN 251912Z AUTO 06012G15KT 10SM OVC016 04/01 A3010 RMK AO2
KMSP - MSP International, Minneapolis, MN, USA
Distance from station: N 13mi, 20km
Updated: Sat, 25-Mar-2017 1:53pm CDT
Overcast
Overcast
 Wind from ENE
Wind: ENE 16 mph , 26 km/h
Temperature: 43°F , 6°C
Wind Chill: 35°F , 2°C
Dew Point: 32°F , 0°C
Humidity: 66%
Barometer: 30.12 inHg , 1020 hPa
Clouds: Overcast
Visibility: 10 miles , 16 km
Cloud details: Overcast 1800 ft
2017/03/25 18:53 KMSP 251853Z 06014KT 10SM OVC018 06/00 A3012 RMK AO2 SLP208 T00560000
 
KSGS - South St Paul/Fleming Field, So. St. Paul, MN, USA
Distance from station: NE 14mi, 22km
Updated: Sat, 25-Mar-2017 2:34pm CDT
Overcast
Overcast
 Wind from ENE
Wind: ENE 10 mph , 17 km/h, Gust: 17 mph , 28 km/h
Temperature: 41°F , 5°C
Wind Chill: 35°F , 2°C
Dew Point: 32°F , 0°C
Humidity: 70%
Barometer: 30.11 inHg , 1019.6 hPa
Clouds: Overcast
Visibility: 10 miles , 16 km
Cloud details: Overcast 1900 ft
2017/03/25 19:34 KSGS 251934Z AUTO 06009G15KT 10SM OVC019 05/00 A3011 RMK AO2 T00530001
KFCM - Mpls/Flying Cloud, Eden Prairie, MN, USA
Distance from station: NW 15mi, 24km
Updated: Sat, 25-Mar-2017 1:53pm CDT
Overcast
Overcast
 Wind from ENE
Wind: ENE 15 mph , 24 km/h, Gust: 20 mph , 31 km/h
Temperature: 43°F , 6°C
Wind Chill: 36°F , 2°C
Dew Point: 34°F , 1°C
Humidity: 71%
Barometer: 30.10 inHg , 1019.3 hPa
Clouds: Overcast
Visibility: 10 miles , 16 km
Cloud details: Overcast 1800 ft
2017/03/25 18:53 KFCM 251853Z 06013G17KT 10SM OVC018 06/01 A3010 RMK AO2 SLP201 T00610006
 
KSTP - St. Paul Downtown, St. Paul, MN, USA
Distance from station: NNE 18mi, 29km
Updated: Sat, 25-Mar-2017 1:53pm CDT
Overcast
Overcast
 Wind from ENE
Wind: ENE 14 mph , 22 km/h
Temperature: 41°F , 5°C
Wind Chill: 33°F , 1°C
Dew Point: 34°F , 1°C
Humidity: 76%
Barometer: 30.14 inHg , 1020.7 hPa
Clouds: Overcast
Visibility: 10 miles , 16 km
Cloud details: Overcast 1900 ft
2017/03/25 18:53 KSTP 251853Z 06012KT 10SM OVC019 05/01 A3014 RMK AO2 SLP210 T00500011
KSYN - Stanton, Minnesota, USA
Distance from station: SE 18mi, 29km
Updated: Sat, 25-Mar-2017 2:34pm CDT
Overcast
Overcast
 Wind from ENE
Wind: ENE 15 mph , 24 km/h, Gust: 21 mph , 33 km/h
Temperature: 41°F , 5°C
Wind Chill: 33°F , 1°C
Dew Point: 36°F , 2°C
Humidity: 81%
Barometer: 30.07 inHg , 1018.3 hPa
Clouds: Overcast
Visibility: 10 miles , 16 km
Cloud details: Overcast 1500 ft
2017/03/25 19:34 KSYN 251934Z AUTO 06013G18KT 10SM OVC015 05/02 A3007 RMK AO2 T00500015
 
KMIC - Mlps/Crystal, MN, USA
Distance from station: NNW 26mi, 42km
Updated: Sat, 25-Mar-2017 1:53pm CDT
Overcast
Overcast
 Wind from ENE
Wind: ENE 8 mph , 13 km/h
Temperature: 41°F , 5°C
Wind Chill: 36°F , 2°C
Dew Point: 30°F , -1°C
Humidity: 66%
Barometer: 30.13 inHg , 1020.3 hPa
Clouds: Overcast
Visibility: 10 miles , 16 km
Cloud details: Overcast 1800 ft
2017/03/25 18:53 KMIC 251853Z 07007KT 10SM OVC018 05/M01 A3013 RMK AO2 SLP209 T00501011
KFBL - Faribault Municipal, MN, USA
Distance from station: S 27mi, 43km
Updated: Sat, 25-Mar-2017 2:34pm CDT
Overcast
Overcast
 Wind from NE
Wind: NE 12 mph , 19 km/h, Gust: 18 mph , 30 km/h
Temperature: 39°F , 4°C
Wind Chill: 32°F , 0°C
Dew Point: 36°F , 2°C
Humidity: 87%
Barometer: 30.07 inHg , 1018.3 hPa
Clouds: Overcast
Visibility: 10 miles , 16 km
Cloud details: Overcast 1500 ft
2017/03/25 19:34 KFBL 251934Z AUTO 04010G16KT 10SM OVC015 04/02 A3007 RMK AO2
 
K21D - Lake Elmo, MN, USA
Distance from station: NE 27mi, 44km
Updated: Sat, 25-Mar-2017 2:32pm CDT
Overcast
Overcast
 Wind from NE
Wind: NE 15 mph , 24 km/h
Temperature: 41°F , 5°C
Wind Chill: 33°F , 1°C
Dew Point: 34°F , 1°C
Humidity: 76%
Barometer: 30.12 inHg , 1020 hPa
Clouds: Overcast
Visibility: 10 miles , 16 km
Cloud details: Overcast 1700 ft
2017/03/25 19:32 K21D 251932Z AUTO 04013KT 10SM OVC017 05/01 A3012 RMK AO2
KANE - Anoka Co./Blaine, MN, USA
Distance from station: 0 30mi, 48km
Updated: Sat, 25-Mar-2017 1:45pm CDT
Overcast
Overcast
 Wind from ENE
Wind: ENE 16 mph , 26 km/h, Gust: 20 mph , 31 km/h
Temperature: 43°F , 6°C
Wind Chill: 35°F , 2°C
Dew Point: 36°F , 2°C
Humidity: 76%
Barometer: 30.14 inHg , 1020.7 hPa
Clouds: Overcast
Visibility: 10 miles , 16 km
Cloud details: Overcast 1600 ft
2017/03/25 18:45 KANE 251845Z 07014G17KT 10SM OVC016 06/02 A3014
 
KRGK - Red Wing, MN, USA
Distance from station: ESE 37mi, 60km
Updated: Sat, 25-Mar-2017 2:35pm CDT
Overcast
Overcast
 Wind from E
Wind: E 12 mph , 19 km/h, Gust: 17 mph , 28 km/h
Temperature: 41°F , 5°C
Wind Chill: 34°F , 1°C
Dew Point: 32°F , 0°C
Humidity: 70%
Barometer: 30.09 inHg , 1019 hPa
Clouds: Overcast
Visibility: 10 miles , 16 km
Cloud details: Overcast 1700 ft
2017/03/25 19:35 KRGK 251935Z AUTO 09010G15KT 10SM OVC017 05/00 A3009 RMK AO2